createdAt,value
2022-07-30T00:04:48.619Z,14.48
2022-07-30T00:09:50.134Z,14.90
2022-07-30T00:14:51.772Z,11.57
2022-07-30T00:19:53.302Z,14.35
2022-07-30T00:24:56.401Z,12.50
2022-07-30T00:29:58.166Z,15.25
2022-07-30T00:34:59.719Z,12.00
2022-07-30T00:40:01.370Z,18.67
2022-07-30T00:45:05.171Z,10.95
2022-07-30T00:50:10.125Z,17.90
2022-07-30T00:55:14.361Z,15.10
2022-07-30T01:00:17.049Z,14.55
2022-07-30T01:05:18.749Z,14.05
2022-07-30T01:10:20.323Z,18.00
2022-07-30T01:15:21.899Z,10.45
2022-07-30T01:20:28.544Z,13.88
2022-07-30T01:25:51.126Z,10.47
2022-07-30T01:30:55.858Z,15.68
2022-07-30T01:35:59.148Z,15.52
2022-07-30T01:41:02.022Z,14.45
2022-07-30T01:46:05.238Z,13.18
2022-07-30T01:51:08.252Z,13.35
2022-07-30T01:56:16.816Z,18.13
2022-07-30T02:01:18.767Z,9.13
2022-07-30T02:06:23.288Z,10.30
2022-07-30T02:11:44.137Z,14.88
2022-07-30T02:16:50.966Z,11.57
2022-07-30T02:22:02.221Z,16.27
2022-07-30T02:27:08.878Z,13.18
2022-07-30T02:32:14.786Z,11.07
2022-07-30T02:37:43.057Z,11.70
2022-07-30T02:42:46.913Z,14.70
2022-07-30T02:47:56.219Z,12.73
2022-07-30T02:53:00.515Z,17.85
2022-07-30T02:58:05.560Z,15.35
2022-07-30T03:03:08.289Z,16.55
2022-07-30T03:08:10.208Z,13.93
2022-07-30T03:13:13.412Z,15.57
2022-07-30T03:18:17.016Z,11.20
2022-07-30T03:23:19.701Z,14.82
2022-07-30T03:28:23.555Z,17.13
2022-07-30T03:33:38.751Z,13.43
2022-07-30T03:38:42.577Z,15.95
2022-07-30T03:43:45.353Z,15.68
2022-07-30T03:48:47.572Z,16.98
2022-07-30T03:53:51.571Z,17.50
2022-07-30T03:58:53.399Z,12.95
2022-07-30T04:03:55.076Z,11.35
2022-07-30T04:08:56.711Z,16.88
2022-07-30T04:13:58.286Z,19.75
2022-07-30T04:19:01.287Z,13.98
2022-07-30T04:24:05.566Z,11.05
2022-07-30T04:29:13.850Z,12.13
2022-07-30T04:34:19.835Z,13.80
2022-07-30T04:39:21.381Z,13.38
2022-07-30T04:44:22.949Z,14.63
2022-07-30T04:49:24.686Z,11.20
2022-07-30T04:54:28.323Z,13.90
2022-07-30T04:59:29.974Z,16.90
2022-07-30T05:04:34.054Z,13.40
2022-07-30T05:09:36.497Z,14.23
2022-07-30T05:14:38.014Z,14.90
2022-07-30T05:19:39.540Z,14.45
2022-07-30T05:24:41.079Z,13.45
2022-07-30T05:29:42.567Z,10.98
2022-07-30T05:34:45.125Z,13.50
2022-07-30T05:40:02.411Z,15.13
2022-07-30T05:45:05.466Z,13.15
2022-07-30T05:50:07.276Z,8.48
2022-07-30T05:55:09.898Z,11.73
2022-07-30T06:00:12.774Z,11.13
2022-07-30T06:05:14.379Z,17.08
2022-07-30T06:10:15.926Z,13.07
2022-07-30T06:15:21.714Z,14.85
2022-07-30T06:20:28.353Z,9.43
2022-07-30T06:25:29.976Z,12.48
2022-07-30T06:30:31.664Z,14.23
2022-07-30T06:35:34.269Z,8.85
2022-07-30T06:40:35.879Z,8.02
2022-07-30T06:45:37.406Z,9.32
2022-07-30T06:50:38.996Z,6.55
2022-07-30T06:55:40.520Z,11.88
2022-07-30T07:00:44.772Z,11.05
2022-07-30T07:05:46.338Z,11.48
2022-07-30T07:10:48.206Z,7.93
2022-07-30T07:15:50.031Z,10.73
2022-07-30T07:20:51.621Z,7.07
2022-07-30T07:25:53.145Z,6.90
2022-07-30T07:30:55.068Z,9.38
2022-07-30T07:35:56.699Z,7.93
2022-07-30T07:40:58.318Z,7.15
2022-07-30T07:46:00.008Z,5.18
2022-07-30T07:51:01.635Z,4.75
2022-07-30T07:56:03.354Z,3.80
2022-07-30T08:01:05.909Z,8.07
2022-07-30T08:06:10.810Z,6.50
2022-07-30T08:11:14.763Z,9.25
2022-07-30T08:16:16.328Z,6.68
2022-07-30T08:21:17.958Z,9.88
2022-07-30T08:26:19.498Z,7.97
2022-07-30T08:31:21.021Z,8.25
2022-07-30T08:36:25.771Z,12.85
2022-07-30T08:41:28.667Z,5.85
2022-07-30T08:46:32.519Z,5.10
2022-07-30T08:51:35.426Z,10.38
2022-07-30T08:56:37.249Z,6.90
2022-07-30T09:01:38.838Z,8.07
2022-07-30T09:06:40.947Z,7.60
2022-07-30T09:11:44.397Z,5.65
2022-07-30T09:16:46.321Z,5.15
2022-07-30T09:21:58.531Z,5.97
2022-07-30T09:27:03.117Z,4.57
2022-07-30T09:32:09.634Z,7.30
2022-07-30T09:37:12.613Z,5.18
2022-07-30T09:42:32.622Z,3.03
2022-07-30T09:47:36.556Z,5.80
2022-07-30T09:52:44.028Z,4.95
2022-07-30T09:58:01.652Z,3.60
2022-07-30T10:03:21.846Z,3.88
2022-07-30T10:08:46.867Z,7.25
2022-07-30T10:13:53.775Z,5.22
2022-07-30T10:18:57.483Z,5.68
2022-07-30T10:23:59.634Z,3.40
2022-07-30T10:29:02.676Z,8.23
2022-07-30T10:34:04.693Z,5.60
2022-07-30T10:39:09.214Z,4.68
2022-07-30T10:44:17.694Z,2.47
2022-07-30T10:49:19.736Z,4.13
2022-07-30T10:54:33.197Z,7.05
2022-07-30T11:00:09.631Z,2.65
2022-07-30T11:05:37.444Z,2.92
2022-07-30T11:10:44.056Z,2.22
2022-07-30T11:15:58.377Z,1.98
2022-07-30T11:21:22.569Z,1.98
2022-07-30T11:26:40.982Z,3.42
2022-07-30T11:31:56.884Z,4.75
2022-07-30T11:37:19.226Z,3.72
2022-07-30T11:42:29.688Z,4.47
2022-07-30T11:47:31.700Z,2.13
2022-07-30T11:52:34.186Z,2.55
2022-07-30T11:57:42.983Z,3.65
2022-07-30T12:02:45.568Z,4.82
2022-07-30T12:07:47.166Z,2.05
2022-07-30T12:12:48.756Z,4.40
2022-07-30T12:18:00.782Z,4.68
2022-07-30T12:23:13.682Z,2.08
2022-07-30T12:28:26.736Z,3.85
2022-07-30T12:33:28.623Z,3.45
2022-07-30T12:38:42.700Z,4.25
2022-07-30T12:43:50.359Z,5.15
2022-07-30T12:49:10.310Z,2.90
2022-07-30T12:54:26.766Z,2.05
2022-07-30T12:59:29.328Z,4.93
2022-07-30T13:04:31.892Z,3.45
2022-07-30T13:09:34.169Z,5.50
2022-07-30T13:14:35.717Z,4.55
2022-07-30T13:19:37.729Z,4.50
2022-07-30T13:24:39.382Z,3.78
2022-07-30T13:29:40.914Z,4.00
2022-07-30T13:34:42.653Z,4.40
2022-07-30T13:39:44.591Z,4.57
2022-07-30T13:44:46.160Z,4.68
2022-07-30T13:49:49.708Z,4.45
2022-07-30T13:54:52.575Z,3.03
2022-07-30T13:59:54.116Z,6.50
2022-07-30T14:04:55.632Z,4.97
2022-07-30T14:09:57.193Z,5.63
2022-07-30T14:14:58.699Z,4.57
2022-07-30T14:20:00.221Z,5.03
2022-07-30T14:25:01.759Z,5.47
2022-07-30T14:30:05.201Z,5.05
2022-07-30T14:35:14.129Z,6.05
2022-07-30T14:40:15.791Z,6.25
2022-07-30T14:45:17.345Z,7.93
2022-07-30T14:50:22.045Z,9.02
2022-07-30T14:55:23.858Z,4.00
2022-07-30T15:00:25.441Z,8.45
2022-07-30T15:05:27.014Z,5.93
2022-07-30T15:10:28.593Z,5.43
2022-07-30T15:15:35.733Z,10.93
2022-07-30T15:20:40.088Z,15.32
2022-07-30T15:25:42.404Z,4.53
2022-07-30T15:30:43.962Z,4.40
2022-07-30T15:35:45.459Z,5.88
2022-07-30T15:40:46.979Z,8.43
2022-07-30T15:45:51.091Z,6.35
2022-07-30T15:51:03.341Z,5.63
2022-07-30T15:56:07.215Z,11.00
2022-07-30T16:01:08.900Z,9.80
2022-07-30T16:06:10.487Z,13.70
2022-07-30T16:11:12.011Z,33.55
2022-07-30T16:16:13.590Z,31.58
2022-07-30T16:21:15.118Z,31.23
2022-07-30T16:26:16.690Z,13.00
2022-07-30T16:31:18.310Z,20.17
2022-07-30T16:36:19.998Z,8.52
2022-07-30T16:41:21.533Z,5.78
2022-07-30T16:46:25.437Z,7.28
2022-07-30T16:51:27.030Z,7.22
2022-07-30T16:56:28.944Z,4.03
2022-07-30T17:01:32.181Z,5.15
2022-07-30T17:06:34.073Z,4.90
2022-07-30T17:11:46.440Z,4.65
2022-07-30T17:16:50.164Z,9.10
2022-07-30T17:21:53.912Z,6.03
2022-07-30T17:26:55.498Z,5.40
2022-07-30T17:31:57.029Z,5.65
2022-07-30T17:37:04.985Z,4.53
2022-07-30T17:42:08.777Z,7.97
2022-07-30T17:47:14.565Z,4.82
2022-07-30T17:52:17.849Z,3.42
2022-07-30T17:57:20.685Z,6.20
2022-07-30T18:02:27.458Z,4.18
2022-07-30T18:07:30.342Z,2.88
2022-07-30T18:12:31.953Z,4.72
2022-07-30T18:17:36.281Z,8.48
2022-07-30T18:22:37.799Z,5.85
2022-07-30T18:27:42.198Z,7.35
2022-07-30T18:32:44.969Z,5.00
2022-07-30T18:37:46.889Z,6.20
2022-07-30T18:42:49.598Z,4.65
2022-07-30T18:47:51.951Z,6.55
2022-07-30T18:52:54.219Z,6.82
2022-07-30T18:57:55.841Z,2.67
2022-07-30T19:02:57.404Z,6.25
2022-07-30T19:07:59.173Z,4.00
2022-07-30T19:13:01.391Z,4.78
2022-07-30T19:18:03.210Z,4.40
2022-07-30T19:23:06.383Z,6.65
2022-07-30T19:28:07.929Z,3.80
2022-07-30T19:33:15.222Z,4.18
2022-07-30T19:38:22.192Z,5.85
2022-07-30T19:43:25.672Z,4.80
2022-07-30T19:48:31.626Z,7.78
2022-07-30T19:53:34.654Z,8.10
2022-07-30T19:58:36.727Z,5.10
2022-07-30T20:03:39.079Z,7.15
2022-07-30T20:08:41.238Z,4.88
2022-07-30T20:13:46.541Z,10.07
2022-07-30T20:18:48.133Z,4.53
2022-07-30T20:23:52.538Z,10.85
2022-07-30T20:28:54.188Z,6.78
2022-07-30T20:33:56.910Z,7.43
2022-07-30T20:38:58.625Z,6.18
2022-07-30T20:44:02.536Z,6.82
2022-07-30T20:49:04.891Z,7.28
2022-07-30T20:54:08.524Z,5.10
2022-07-30T20:59:10.136Z,10.90
2022-07-30T21:04:11.744Z,11.05
2022-07-30T21:09:49.936Z,4.30
2022-07-30T21:14:52.904Z,8.73
2022-07-30T21:19:54.413Z,13.70
2022-07-30T21:24:57.174Z,6.30
2022-07-30T21:29:58.721Z,6.80
2022-07-30T21:35:08.482Z,6.55
2022-07-30T21:40:10.671Z,9.88
2022-07-30T21:45:12.212Z,5.70
2022-07-30T21:50:14.146Z,5.43
2022-07-30T21:55:17.825Z,8.38
2022-07-30T22:00:22.376Z,8.73
2022-07-30T22:05:38.589Z,6.10
2022-07-30T22:10:42.579Z,7.72
2022-07-30T22:15:44.252Z,9.05
2022-07-30T22:20:45.821Z,6.47
2022-07-30T22:25:48.079Z,5.55
2022-07-30T22:30:51.561Z,7.50
2022-07-30T22:35:53.114Z,7.03
2022-07-30T22:40:54.981Z,6.93
2022-07-30T22:45:58.693Z,6.18
2022-07-30T22:51:00.293Z,3.50
2022-07-30T22:56:03.288Z,7.00
2022-07-30T23:01:05.574Z,5.45
2022-07-30T23:06:07.321Z,6.85
2022-07-30T23:11:16.822Z,7.70
2022-07-30T23:16:22.822Z,8.70
2022-07-30T23:21:24.739Z,5.85
2022-07-30T23:26:26.469Z,8.57
2022-07-30T23:31:28.142Z,6.18
2022-07-30T23:36:29.668Z,4.97
2022-07-30T23:41:31.277Z,5.32
2022-07-30T23:46:32.984Z,7.00
2022-07-30T23:51:34.544Z,6.68
2022-07-30T23:56:36.604Z,2.53
